sensor_id;sensor_type;location;lat;lon;timestamp;P1;durP1;ratioP1;P2;durP2;ratioP2
51296;SDS011;37380;45.186;9.792;2022-12-10T00:01:53;37.05;;;26.58;;
51296;SDS011;37380;45.186;9.792;2022-12-10T00:04:49;40.00;;;29.52;;
51296;SDS011;37380;45.186;9.792;2022-12-10T00:07:22;39.60;;;31.60;;
51296;SDS011;37380;45.186;9.792;2022-12-10T00:10:28;39.05;;;31.25;;
51296;SDS011;37380;45.186;9.792;2022-12-10T00:13:26;40.25;;;31.42;;
51296;SDS011;37380;45.186;9.792;2022-12-10T00:15:58;43.10;;;29.63;;
51296;SDS011;37380;45.186;9.792;2022-12-10T00:18:36;43.15;;;28.40;;
51296;SDS011;37380;45.186;9.792;2022-12-10T00:21:41;35.00;;;28.27;;
51296;SDS011;37380;45.186;9.792;2022-12-10T00:24:40;39.95;;;30.65;;
51296;SDS011;37380;45.186;9.792;2022-12-10T00:27:09;44.67;;;31.23;;
51296;SDS011;37380;45.186;9.792;2022-12-10T00:32:10;37.97;;;28.00;;
51296;SDS011;37380;45.186;9.792;2022-12-10T00:34:37;43.00;;;30.73;;
51296;SDS011;37380;45.186;9.792;2022-12-10T00:37:16;45.00;;;32.15;;
51296;SDS011;37380;45.186;9.792;2022-12-10T00:40:12;41.17;;;30.70;;
51296;SDS011;37380;45.186;9.792;2022-12-10T00:42:40;44.70;;;33.78;;
51296;SDS011;37380;45.186;9.792;2022-12-10T00:45:10;38.60;;;30.75;;
51296;SDS011;37380;45.186;9.792;2022-12-10T00:47:40;44.67;;;33.80;;
51296;SDS011;37380;45.186;9.792;2022-12-10T00:50:14;38.88;;;29.73;;
51296;SDS011;37380;45.186;9.792;2022-12-10T00:53:08;43.28;;;32.08;;
51296;SDS011;37380;45.186;9.792;2022-12-10T00:55:34;48.92;;;33.33;;
51296;SDS011;37380;45.186;9.792;2022-12-10T00:58:01;41.30;;;32.97;;
51296;SDS011;37380;45.186;9.792;2022-12-10T01:00:29;42.25;;;31.75;;
51296;SDS011;37380;45.186;9.792;2022-12-10T01:02:56;44.30;;;32.10;;
51296;SDS011;37380;45.186;9.792;2022-12-10T01:05:24;41.63;;;31.02;;
51296;SDS011;37380;45.186;9.792;2022-12-10T01:07:57;36.42;;;28.98;;
51296;SDS011;37380;45.186;9.792;2022-12-10T01:10:52;39.30;;;30.83;;
51296;SDS011;37380;45.186;9.792;2022-12-10T01:13:22;37.80;;;28.67;;
51296;SDS011;37380;45.186;9.792;2022-12-10T01:15:49;44.90;;;33.53;;
51296;SDS011;37380;45.186;9.792;2022-12-10T01:18:23;40.78;;;31.20;;
51296;SDS011;37380;45.186;9.792;2022-12-10T01:21:24;41.97;;;31.08;;
51296;SDS011;37380;45.186;9.792;2022-12-10T01:24:14;43.88;;;32.20;;
51296;SDS011;37380;45.186;9.792;2022-12-10T01:26:43;41.85;;;31.30;;
51296;SDS011;37380;45.186;9.792;2022-12-10T01:29:10;39.63;;;29.23;;
51296;SDS011;37380;45.186;9.792;2022-12-10T01:31:39;36.13;;;29.85;;
51296;SDS011;37380;45.186;9.792;2022-12-10T01:34:09;38.72;;;31.75;;
51296;SDS011;37380;45.186;9.792;2022-12-10T01:36:39;41.83;;;31.45;;
51296;SDS011;37380;45.186;9.792;2022-12-10T01:39:11;38.15;;;28.13;;
51296;SDS011;37380;45.186;9.792;2022-12-10T01:41:49;45.65;;;34.83;;
51296;SDS011;37380;45.186;9.792;2022-12-10T01:47:15;40.45;;;31.33;;
51296;SDS011;37380;45.186;9.792;2022-12-10T01:49:42;41.63;;;31.88;;
51296;SDS011;37380;45.186;9.792;2022-12-10T01:52:12;44.15;;;33.75;;
51296;SDS011;37380;45.186;9.792;2022-12-10T01:54:47;36.22;;;28.45;;
51296;SDS011;37380;45.186;9.792;2022-12-10T01:57:41;37.75;;;29.05;;
51296;SDS011;37380;45.186;9.792;2022-12-10T02:00:09;37.38;;;30.33;;
51296;SDS011;37380;45.186;9.792;2022-12-10T02:05:15;38.65;;;31.33;;
51296;SDS011;37380;45.186;9.792;2022-12-10T02:08:18;41.22;;;29.83;;
51296;SDS011;37380;45.186;9.792;2022-12-10T02:15:20;46.67;;;32.88;;
51296;SDS011;37380;45.186;9.792;2022-12-10T02:17:42;44.80;;;31.98;;
51296;SDS011;37380;45.186;9.792;2022-12-10T02:20:47;46.03;;;32.92;;
51296;SDS011;37380;45.186;9.792;2022-12-10T02:23:22;44.15;;;33.92;;
51296;SDS011;37380;45.186;9.792;2022-12-10T02:26:03;45.15;;;31.52;;
51296;SDS011;37380;45.186;9.792;2022-12-10T02:32:19;41.85;;;34.20;;
51296;SDS011;37380;45.186;9.792;2022-12-10T02:35:26;40.88;;;31.75;;
51296;SDS011;37380;45.186;9.792;2022-12-10T02:38:04;37.33;;;28.45;;
51296;SDS011;37380;45.186;9.792;2022-12-10T02:40:37;55.35;;;36.58;;
51296;SDS011;37380;45.186;9.792;2022-12-10T02:43:08;38.88;;;32.53;;
51296;SDS011;37380;45.186;9.792;2022-12-10T02:45:39;41.83;;;33.00;;
51296;SDS011;37380;45.186;9.792;2022-12-10T02:48:09;45.42;;;35.47;;
51296;SDS011;37380;45.186;9.792;2022-12-10T02:50:41;56.78;;;33.67;;
51296;SDS011;37380;45.186;9.792;2022-12-10T02:53:08;47.13;;;33.78;;
51296;SDS011;37380;45.186;9.792;2022-12-10T02:58:39;41.30;;;33.15;;
51296;SDS011;37380;45.186;9.792;2022-12-10T03:07:35;41.95;;;31.73;;
51296;SDS011;37380;45.186;9.792;2022-12-10T03:10:42;46.70;;;34.88;;
51296;SDS011;37380;45.186;9.792;2022-12-10T03:13:18;48.70;;;36.70;;
51296;SDS011;37380;45.186;9.792;2022-12-10T03:15:48;48.70;;;34.97;;
51296;SDS011;37380;45.186;9.792;2022-12-10T03:18:25;47.10;;;35.80;;
51296;SDS011;37380;45.186;9.792;2022-12-10T03:21:30;52.75;;;38.22;;
51296;SDS011;37380;45.186;9.792;2022-12-10T03:24:07;45.35;;;35.30;;
51296;SDS011;37380;45.186;9.792;2022-12-10T03:26:37;44.72;;;36.28;;
51296;SDS011;37380;45.186;9.792;2022-12-10T03:29:08;46.47;;;38.65;;
51296;SDS011;37380;45.186;9.792;2022-12-10T03:31:42;49.20;;;36.55;;
51296;SDS011;37380;45.186;9.792;2022-12-10T03:34:17;44.13;;;35.88;;
51296;SDS011;37380;45.186;9.792;2022-12-10T03:37:19;49.28;;;38.25;;
51296;SDS011;37380;45.186;9.792;2022-12-10T03:40:25;47.50;;;36.17;;
51296;SDS011;37380;45.186;9.792;2022-12-10T03:45:48;43.65;;;36.28;;
51296;SDS011;37380;45.186;9.792;2022-12-10T03:48:16;47.58;;;37.63;;
51296;SDS011;37380;45.186;9.792;2022-12-10T03:50:43;50.10;;;41.17;;
51296;SDS011;37380;45.186;9.792;2022-12-10T03:53:14;47.38;;;35.80;;
51296;SDS011;37380;45.186;9.792;2022-12-10T03:55:47;56.10;;;38.22;;
51296;SDS011;37380;45.186;9.792;2022-12-10T03:58:15;53.85;;;39.17;;
51296;SDS011;37380;45.186;9.792;2022-12-10T04:00:53;48.05;;;38.05;;
51296;SDS011;37380;45.186;9.792;2022-12-10T04:03:48;57.67;;;41.53;;
51296;SDS011;37380;45.186;9.792;2022-12-10T04:06:23;57.25;;;41.25;;
51296;SDS011;37380;45.186;9.792;2022-12-10T04:09:18;48.88;;;37.13;;
51296;SDS011;37380;45.186;9.792;2022-12-10T04:11:45;48.83;;;40.05;;
51296;SDS011;37380;45.186;9.792;2022-12-10T04:14:13;62.05;;;43.78;;
51296;SDS011;37380;45.186;9.792;2022-12-10T04:17:05;52.50;;;38.85;;
51296;SDS011;37380;45.186;9.792;2022-12-10T04:19:59;51.70;;;39.30;;
51296;SDS011;37380;45.186;9.792;2022-12-10T04:22:26;53.55;;;42.13;;
51296;SDS011;37380;45.186;9.792;2022-12-10T04:25:11;53.22;;;41.28;;
51296;SDS011;37380;45.186;9.792;2022-12-10T04:27:57;50.53;;;40.25;;
51296;SDS011;37380;45.186;9.792;2022-12-10T04:30:24;57.40;;;41.05;;
51296;SDS011;37380;45.186;9.792;2022-12-10T04:32:51;56.22;;;41.95;;
51296;SDS011;37380;45.186;9.792;2022-12-10T04:35:18;57.80;;;42.65;;
51296;SDS011;37380;45.186;9.792;2022-12-10T04:37:45;61.15;;;44.72;;
51296;SDS011;37380;45.186;9.792;2022-12-10T04:40:12;60.28;;;45.50;;
51296;SDS011;37380;45.186;9.792;2022-12-10T04:42:39;58.72;;;45.90;;
51296;SDS011;37380;45.186;9.792;2022-12-10T04:45:06;54.22;;;39.28;;
51296;SDS011;37380;45.186;9.792;2022-12-10T04:47:41;62.42;;;43.97;;
51296;SDS011;37380;45.186;9.792;2022-12-10T04:50:42;57.67;;;43.33;;
51296;SDS011;37380;45.186;9.792;2022-12-10T04:53:36;56.92;;;45.10;;
51296;SDS011;37380;45.186;9.792;2022-12-10T04:56:03;54.13;;;43.60;;
51296;SDS011;37380;45.186;9.792;2022-12-10T04:58:31;63.95;;;47.72;;
51296;SDS011;37380;45.186;9.792;2022-12-10T05:01:03;56.45;;;42.30;;
51296;SDS011;37380;45.186;9.792;2022-12-10T05:03:31;56.30;;;43.65;;
51296;SDS011;37380;45.186;9.792;2022-12-10T05:06:02;62.05;;;46.63;;
51296;SDS011;37380;45.186;9.792;2022-12-10T05:08:50;57.38;;;42.72;;
51296;SDS011;37380;45.186;9.792;2022-12-10T05:11:44;60.27;;;43.00;;
51296;SDS011;37380;45.186;9.792;2022-12-10T05:14:31;64.80;;;43.17;;
51296;SDS011;37380;45.186;9.792;2022-12-10T05:17:05;59.20;;;42.78;;
51296;SDS011;37380;45.186;9.792;2022-12-10T05:19:59;57.78;;;45.08;;
51296;SDS011;37380;45.186;9.792;2022-12-10T05:22:26;55.95;;;44.67;;
51296;SDS011;37380;45.186;9.792;2022-12-10T05:25:12;59.67;;;43.65;;
51296;SDS011;37380;45.186;9.792;2022-12-10T05:27:39;66.10;;;47.78;;
51296;SDS011;37380;45.186;9.792;2022-12-10T05:30:07;57.88;;;46.20;;
51296;SDS011;37380;45.186;9.792;2022-12-10T05:32:41;63.33;;;44.20;;
51296;SDS011;37380;45.186;9.792;2022-12-10T05:35:35;61.88;;;44.17;;
51296;SDS011;37380;45.186;9.792;2022-12-10T05:38:02;66.10;;;45.50;;
51296;SDS011;37380;45.186;9.792;2022-12-10T05:40:30;55.95;;;44.30;;
51296;SDS011;37380;45.186;9.792;2022-12-10T05:42:57;62.10;;;46.90;;
51296;SDS011;37380;45.186;9.792;2022-12-10T05:45:24;66.40;;;45.70;;
51296;SDS011;37380;45.186;9.792;2022-12-10T05:47:52;57.05;;;41.95;;
51296;SDS011;37380;45.186;9.792;2022-12-10T05:50:19;62.13;;;47.83;;
51296;SDS011;37380;45.186;9.792;2022-12-10T05:52:46;60.42;;;46.50;;
51296;SDS011;37380;45.186;9.792;2022-12-10T05:55:13;59.10;;;42.25;;
51296;SDS011;37380;45.186;9.792;2022-12-10T05:57:40;61.00;;;46.63;;
51296;SDS011;37380;45.186;9.792;2022-12-10T06:00:07;62.67;;;42.72;;
51296;SDS011;37380;45.186;9.792;2022-12-10T06:02:52;65.97;;;46.88;;
51296;SDS011;37380;45.186;9.792;2022-12-10T06:05:53;58.55;;;43.60;;
51296;SDS011;37380;45.186;9.792;2022-12-10T06:08:54;57.15;;;44.50;;
51296;SDS011;37380;45.186;9.792;2022-12-10T06:11:49;69.13;;;46.03;;
51296;SDS011;37380;45.186;9.792;2022-12-10T06:14:16;63.90;;;45.05;;
51296;SDS011;37380;45.186;9.792;2022-12-10T06:16:50;63.75;;;47.03;;
51296;SDS011;37380;45.186;9.792;2022-12-10T06:19:51;66.60;;;44.42;;
51296;SDS011;37380;45.186;9.792;2022-12-10T06:22:52;68.53;;;46.33;;
51296;SDS011;37380;45.186;9.792;2022-12-10T06:25:37;64.88;;;47.40;;
51296;SDS011;37380;45.186;9.792;2022-12-10T06:28:05;57.10;;;40.95;;
51296;SDS011;37380;45.186;9.792;2022-12-10T06:30:33;70.10;;;46.60;;
51296;SDS011;37380;45.186;9.792;2022-12-10T06:33:01;65.50;;;44.20;;
51296;SDS011;37380;45.186;9.792;2022-12-10T06:35:29;62.58;;;44.03;;
51296;SDS011;37380;45.186;9.792;2022-12-10T06:37:56;63.17;;;43.47;;
51296;SDS011;37380;45.186;9.792;2022-12-10T06:40:24;61.20;;;45.97;;
51296;SDS011;37380;45.186;9.792;2022-12-10T06:42:51;66.70;;;46.15;;
51296;SDS011;37380;45.186;9.792;2022-12-10T06:45:19;65.80;;;44.95;;
51296;SDS011;37380;45.186;9.792;2022-12-10T06:47:46;62.78;;;46.25;;
51296;SDS011;37380;45.186;9.792;2022-12-10T06:50:13;63.70;;;46.45;;
51296;SDS011;37380;45.186;9.792;2022-12-10T06:52:47;72.45;;;46.10;;
51296;SDS011;37380;45.186;9.792;2022-12-10T06:55:50;61.88;;;43.65;;
51296;SDS011;37380;45.186;9.792;2022-12-10T06:58:44;64.22;;;44.78;;
51296;SDS011;37380;45.186;9.792;2022-12-10T07:01:23;65.05;;;49.92;;
51296;SDS011;37380;45.186;9.792;2022-12-10T07:03:55;59.97;;;43.50;;
51296;SDS011;37380;45.186;9.792;2022-12-10T07:06:30;62.58;;;47.08;;
51296;SDS011;37380;45.186;9.792;2022-12-10T07:09:32;71.78;;;48.55;;
51296;SDS011;37380;45.186;9.792;2022-12-10T07:12:34;68.18;;;48.13;;
51296;SDS011;37380;45.186;9.792;2022-12-10T07:15:01;67.57;;;43.83;;
51296;SDS011;37380;45.186;9.792;2022-12-10T07:17:37;71.22;;;48.22;;
51296;SDS011;37380;45.186;9.792;2022-12-10T07:20:38;59.65;;;43.72;;
51296;SDS011;37380;45.186;9.792;2022-12-10T07:23:32;63.22;;;45.00;;
51296;SDS011;37380;45.186;9.792;2022-12-10T07:25:59;71.82;;;47.20;;
51296;SDS011;37380;45.186;9.792;2022-12-10T07:28:27;66.50;;;47.30;;
51296;SDS011;37380;45.186;9.792;2022-12-10T07:31:01;62.67;;;46.05;;
51296;SDS011;37380;45.186;9.792;2022-12-10T07:33:32;62.80;;;44.85;;
51296;SDS011;37380;45.186;9.792;2022-12-10T07:36:02;65.35;;;44.03;;
51296;SDS011;37380;45.186;9.792;2022-12-10T07:38:34;61.05;;;44.70;;
51296;SDS011;37380;45.186;9.792;2022-12-10T07:41:03;67.03;;;47.13;;
51296;SDS011;37380;45.186;9.792;2022-12-10T07:43:33;65.43;;;46.95;;
51296;SDS011;37380;45.186;9.792;2022-12-10T07:46:05;64.00;;;45.63;;
51296;SDS011;37380;45.186;9.792;2022-12-10T07:48:34;66.63;;;48.75;;
51296;SDS011;37380;45.186;9.792;2022-12-10T07:51:02;60.67;;;45.08;;
51296;SDS011;37380;45.186;9.792;2022-12-10T07:53:30;65.10;;;45.10;;
51296;SDS011;37380;45.186;9.792;2022-12-10T07:56:04;62.45;;;43.35;;
51296;SDS011;37380;45.186;9.792;2022-12-10T07:58:59;65.72;;;45.53;;
51296;SDS011;37380;45.186;9.792;2022-12-10T08:01:27;63.88;;;46.50;;
51296;SDS011;37380;45.186;9.792;2022-12-10T08:04:01;64.55;;;47.78;;
51296;SDS011;37380;45.186;9.792;2022-12-10T08:07:02;69.18;;;43.03;;
51296;SDS011;37380;45.186;9.792;2022-12-10T08:10:04;70.35;;;46.17;;
51296;SDS011;37380;45.186;9.792;2022-12-10T08:13:05;73.15;;;47.65;;
51296;SDS011;37380;45.186;9.792;2022-12-10T08:16:09;61.42;;;43.85;;
51296;SDS011;37380;45.186;9.792;2022-12-10T08:19:12;59.17;;;42.30;;
51296;SDS011;37380;45.186;9.792;2022-12-10T08:21:57;59.10;;;42.17;;
51296;SDS011;37380;45.186;9.792;2022-12-10T08:24:24;62.88;;;45.80;;
51296;SDS011;37380;45.186;9.792;2022-12-10T08:26:52;65.82;;;45.05;;
51296;SDS011;37380;45.186;9.792;2022-12-10T08:29:19;66.57;;;46.38;;
51296;SDS011;37380;45.186;9.792;2022-12-10T08:31:47;56.10;;;41.35;;
51296;SDS011;37380;45.186;9.792;2022-12-10T08:34:15;62.17;;;42.67;;
51296;SDS011;37380;45.186;9.792;2022-12-10T08:36:44;66.63;;;46.03;;
51296;SDS011;37380;45.186;9.792;2022-12-10T08:39:12;61.65;;;45.67;;
51296;SDS011;37380;45.186;9.792;2022-12-10T08:41:43;59.65;;;41.92;;
51296;SDS011;37380;45.186;9.792;2022-12-10T08:44:18;57.50;;;42.03;;
51296;SDS011;37380;45.186;9.792;2022-12-10T08:47:12;57.70;;;41.63;;
51296;SDS011;37380;45.186;9.792;2022-12-10T08:49:39;53.00;;;41.33;;
51296;SDS011;37380;45.186;9.792;2022-12-10T08:52:13;56.85;;;40.65;;
51296;SDS011;37380;45.186;9.792;2022-12-10T08:55:14;52.97;;;37.60;;
51296;SDS011;37380;45.186;9.792;2022-12-10T08:58:15;53.35;;;39.33;;
51296;SDS011;37380;45.186;9.792;2022-12-10T09:01:10;59.45;;;41.15;;
51296;SDS011;37380;45.186;9.792;2022-12-10T09:03:49;67.25;;;39.53;;
51296;SDS011;37380;45.186;9.792;2022-12-10T09:06:50;56.45;;;40.35;;
51296;SDS011;37380;45.186;9.792;2022-12-10T09:09:56;64.30;;;43.38;;
51296;SDS011;37380;45.186;9.792;2022-12-10T09:12:50;58.42;;;39.00;;
51296;SDS011;37380;45.186;9.792;2022-12-10T09:15:24;64.40;;;43.25;;
51296;SDS011;37380;45.186;9.792;2022-12-10T09:18:25;53.60;;;38.50;;
51296;SDS011;37380;45.186;9.792;2022-12-10T09:21:26;56.20;;;39.67;;
51296;SDS011;37380;45.186;9.792;2022-12-10T09:23:57;60.45;;;41.75;;
51296;SDS011;37380;45.186;9.792;2022-12-10T09:26:24;58.30;;;42.65;;
51296;SDS011;37380;45.186;9.792;2022-12-10T09:28:52;67.55;;;46.97;;
51296;SDS011;37380;45.186;9.792;2022-12-10T09:31:19;62.38;;;45.42;;
51296;SDS011;37380;45.186;9.792;2022-12-10T09:33:47;62.42;;;42.50;;
51296;SDS011;37380;45.186;9.792;2022-12-10T09:36:15;59.92;;;45.30;;
51296;SDS011;37380;45.186;9.792;2022-12-10T09:38:44;60.72;;;43.20;;
51296;SDS011;37380;45.186;9.792;2022-12-10T09:47:03;59.08;;;42.50;;
51296;SDS011;37380;45.186;9.792;2022-12-10T09:52:27;59.55;;;44.25;;
51296;SDS011;37380;45.186;9.792;2022-12-10T09:55:04;67.97;;;45.45;;
51296;SDS011;37380;45.186;9.792;2022-12-10T09:57:46;64.32;;;44.90;;
51296;SDS011;37380;45.186;9.792;2022-12-10T10:00:45;66.13;;;46.67;;
51296;SDS011;37380;45.186;9.792;2022-12-10T10:03:37;73.20;;;44.58;;
51296;SDS011;37380;45.186;9.792;2022-12-10T10:06:13;67.17;;;46.43;;
51296;SDS011;37380;45.186;9.792;2022-12-10T10:09:15;66.00;;;49.75;;
51296;SDS011;37380;45.186;9.792;2022-12-10T10:11:46;70.60;;;50.17;;
51296;SDS011;37380;45.186;9.792;2022-12-10T10:14:16;72.13;;;50.35;;
51296;SDS011;37380;45.186;9.792;2022-12-10T10:17:03;60.80;;;44.92;;
51296;SDS011;37380;45.186;9.792;2022-12-10T10:20:19;71.75;;;49.90;;
51296;SDS011;37380;45.186;9.792;2022-12-10T10:23:07;71.30;;;51.38;;
51296;SDS011;37380;45.186;9.792;2022-12-10T10:25:35;77.68;;;48.25;;
51296;SDS011;37380;45.186;9.792;2022-12-10T10:28:02;65.18;;;46.42;;
51296;SDS011;37380;45.186;9.792;2022-12-10T10:30:29;64.45;;;43.28;;
51296;SDS011;37380;45.186;9.792;2022-12-10T10:32:57;63.95;;;41.70;;
51296;SDS011;37380;45.186;9.792;2022-12-10T10:36:08;60.75;;;41.88;;
51296;SDS011;37380;45.186;9.792;2022-12-10T10:38:43;53.70;;;37.22;;
51296;SDS011;37380;45.186;9.792;2022-12-10T10:41:14;60.78;;;43.97;;
51296;SDS011;37380;45.186;9.792;2022-12-10T10:43:48;64.90;;;41.63;;
51296;SDS011;37380;45.186;9.792;2022-12-10T10:46:55;55.50;;;37.15;;
51296;SDS011;37380;45.186;9.792;2022-12-10T10:49:56;49.28;;;35.70;;
51296;SDS011;37380;45.186;9.792;2022-12-10T10:52:58;58.45;;;39.30;;
51296;SDS011;37380;45.186;9.792;2022-12-10T10:55:30;53.55;;;38.30;;
51296;SDS011;37380;45.186;9.792;2022-12-10T10:58:02;54.33;;;37.63;;
51296;SDS011;37380;45.186;9.792;2022-12-10T11:00:30;55.47;;;37.15;;
51296;SDS011;37380;45.186;9.792;2022-12-10T11:03:05;51.30;;;36.03;;
51296;SDS011;37380;45.186;9.792;2022-12-10T11:06:07;52.15;;;35.28;;
51296;SDS011;37380;45.186;9.792;2022-12-10T11:09:13;52.78;;;35.55;;
51296;SDS011;37380;45.186;9.792;2022-12-10T11:12:23;53.72;;;34.80;;
51296;SDS011;37380;45.186;9.792;2022-12-10T11:14:55;50.28;;;34.80;;
51296;SDS011;37380;45.186;9.792;2022-12-10T11:17:29;48.53;;;36.35;;
51296;SDS011;37380;45.186;9.792;2022-12-10T11:20:25;54.83;;;37.45;;
51296;SDS011;37380;45.186;9.792;2022-12-10T11:23:08;55.72;;;38.78;;
51296;SDS011;37380;45.186;9.792;2022-12-10T11:26:15;58.55;;;39.35;;
51296;SDS011;37380;45.186;9.792;2022-12-10T11:29:27;54.80;;;35.13;;
51296;SDS011;37380;45.186;9.792;2022-12-10T11:35:07;54.97;;;38.65;;
51296;SDS011;37380;45.186;9.792;2022-12-10T11:38:13;49.42;;;35.63;;
51296;SDS011;37380;45.186;9.792;2022-12-10T11:40:50;48.95;;;35.70;;
51296;SDS011;37380;45.186;9.792;2022-12-10T11:54:43;44.50;;;34.33;;
51296;SDS011;37380;45.186;9.792;2022-12-10T11:57:18;44.20;;;31.13;;
51296;SDS011;37380;45.186;9.792;2022-12-10T12:06:27;43.35;;;32.83;;
51296;SDS011;37380;45.186;9.792;2022-12-10T12:14:44;43.65;;;32.85;;
51296;SDS011;37380;45.186;9.792;2022-12-10T12:17:45;43.05;;;29.70;;
51296;SDS011;37380;45.186;9.792;2022-12-10T12:21:05;44.50;;;33.05;;
51296;SDS011;37380;45.186;9.792;2022-12-10T12:24:16;46.75;;;32.75;;
51296;SDS011;37380;45.186;9.792;2022-12-10T12:32:40;47.15;;;35.67;;
51296;SDS011;37380;45.186;9.792;2022-12-10T12:41:41;55.03;;;37.42;;
51296;SDS011;37380;45.186;9.792;2022-12-10T12:45:03;51.43;;;35.63;;
51296;SDS011;37380;45.186;9.792;2022-12-10T12:50:47;49.88;;;37.53;;
51296;SDS011;37380;45.186;9.792;2022-12-10T12:53:33;54.72;;;41.50;;
51296;SDS011;37380;45.186;9.792;2022-12-10T13:02:02;47.72;;;35.85;;
51296;SDS011;37380;45.186;9.792;2022-12-10T13:04:48;47.65;;;36.63;;
51296;SDS011;37380;45.186;9.792;2022-12-10T13:23:47;45.15;;;34.65;;
51296;SDS011;37380;45.186;9.792;2022-12-10T13:26:24;49.58;;;34.60;;
51296;SDS011;37380;45.186;9.792;2022-12-10T13:28:53;38.50;;;29.05;;
51296;SDS011;37380;45.186;9.792;2022-12-10T13:31:32;42.00;;;32.75;;
51296;SDS011;37380;45.186;9.792;2022-12-10T13:39:33;35.63;;;29.70;;
51296;SDS011;37380;45.186;9.792;2022-12-10T13:51:30;33.78;;;27.35;;
51296;SDS011;37380;45.186;9.792;2022-12-10T13:54:09;43.65;;;31.27;;
51296;SDS011;37380;45.186;9.792;2022-12-10T13:57:00;34.45;;;29.40;;
51296;SDS011;37380;45.186;9.792;2022-12-10T13:59:55;36.72;;;29.40;;
51296;SDS011;37380;45.186;9.792;2022-12-10T14:06:16;37.80;;;28.05;;
51296;SDS011;37380;45.186;9.792;2022-12-10T14:09:20;36.65;;;29.80;;
51296;SDS011;37380;45.186;9.792;2022-12-10T14:12:52;32.78;;;27.92;;
51296;SDS011;37380;45.186;9.792;2022-12-10T14:15:47;32.30;;;26.33;;
51296;SDS011;37380;45.186;9.792;2022-12-10T14:19:00;33.38;;;26.33;;
51296;SDS011;37380;45.186;9.792;2022-12-10T14:22:06;30.25;;;25.38;;
51296;SDS011;37380;45.186;9.792;2022-12-10T14:25:02;35.20;;;24.50;;
51296;SDS011;37380;45.186;9.792;2022-12-10T14:27:33;31.77;;;25.20;;
51296;SDS011;37380;45.186;9.792;2022-12-10T14:30:36;35.22;;;26.65;;
51296;SDS011;37380;45.186;9.792;2022-12-10T14:33:21;27.38;;;23.73;;
51296;SDS011;37380;45.186;9.792;2022-12-10T14:36:29;29.58;;;23.63;;
51296;SDS011;37380;45.186;9.792;2022-12-10T14:39:27;29.48;;;22.88;;
51296;SDS011;37380;45.186;9.792;2022-12-10T14:41:58;26.75;;;23.20;;
51296;SDS011;37380;45.186;9.792;2022-12-10T14:44:34;40.05;;;23.20;;
51296;SDS011;37380;45.186;9.792;2022-12-10T14:47:39;29.73;;;24.92;;
51296;SDS011;37380;45.186;9.792;2022-12-10T14:50:33;27.90;;;23.77;;
51296;SDS011;37380;45.186;9.792;2022-12-10T14:53:01;31.95;;;24.40;;
51296;SDS011;37380;45.186;9.792;2022-12-10T14:55:28;34.38;;;28.85;;
51296;SDS011;37380;45.186;9.792;2022-12-10T14:57:56;28.45;;;23.77;;
51296;SDS011;37380;45.186;9.792;2022-12-10T15:00:34;34.35;;;28.17;;
51296;SDS011;37380;45.186;9.792;2022-12-10T15:03:39;35.47;;;26.58;;
51296;SDS011;37380;45.186;9.792;2022-12-10T15:06:45;37.95;;;27.90;;
51296;SDS011;37380;45.186;9.792;2022-12-10T15:09:47;36.00;;;27.55;;
51296;SDS011;37380;45.186;9.792;2022-12-10T15:12:50;33.03;;;29.42;;
51296;SDS011;37380;45.186;9.792;2022-12-10T15:15:53;37.95;;;29.63;;
51296;SDS011;37380;45.186;9.792;2022-12-10T15:18:54;35.17;;;28.63;;
51296;SDS011;37380;45.186;9.792;2022-12-10T15:24:56;41.60;;;34.67;;
51296;SDS011;37380;45.186;9.792;2022-12-10T15:27:24;46.95;;;33.50;;
51296;SDS011;37380;45.186;9.792;2022-12-10T15:29:59;47.08;;;34.45;;
51296;SDS011;37380;45.186;9.792;2022-12-10T15:33:30;42.15;;;35.30;;
51296;SDS011;37380;45.186;9.792;2022-12-10T15:36:31;49.72;;;37.70;;
51296;SDS011;37380;45.186;9.792;2022-12-10T15:41:43;53.67;;;39.72;;
51296;SDS011;37380;45.186;9.792;2022-12-10T15:44:24;44.25;;;35.95;;
51296;SDS011;37380;45.186;9.792;2022-12-10T15:49:35;50.45;;;37.42;;
51296;SDS011;37380;45.186;9.792;2022-12-10T15:52:36;59.28;;;40.67;;
51296;SDS011;37380;45.186;9.792;2022-12-10T15:55:31;53.55;;;43.80;;
51296;SDS011;37380;45.186;9.792;2022-12-10T15:57:58;55.72;;;42.85;;
51296;SDS011;37380;45.186;9.792;2022-12-10T16:00:26;58.03;;;46.20;;
51296;SDS011;37380;45.186;9.792;2022-12-10T16:02:55;65.32;;;51.67;;
51296;SDS011;37380;45.186;9.792;2022-12-10T16:05:25;60.72;;;49.42;;
51296;SDS011;37380;45.186;9.792;2022-12-10T16:08:23;68.82;;;55.80;;
51296;SDS011;37380;45.186;9.792;2022-12-10T16:11:28;62.35;;;47.45;;
51296;SDS011;37380;45.186;9.792;2022-12-10T16:14:29;73.28;;;53.10;;
51296;SDS011;37380;45.186;9.792;2022-12-10T16:17:30;71.35;;;52.50;;
51296;SDS011;37380;45.186;9.792;2022-12-10T16:20:25;68.55;;;52.67;;
51296;SDS011;37380;45.186;9.792;2022-12-10T16:22:55;66.55;;;50.53;;
51296;SDS011;37380;45.186;9.792;2022-12-10T16:25:24;79.30;;;53.97;;
51296;SDS011;37380;45.186;9.792;2022-12-10T16:27:59;68.07;;;54.63;;
51296;SDS011;37380;45.186;9.792;2022-12-10T16:30:59;66.72;;;52.97;;
51296;SDS011;37380;45.186;9.792;2022-12-10T16:33:27;64.50;;;50.10;;
51296;SDS011;37380;45.186;9.792;2022-12-10T16:36:01;76.43;;;54.17;;
51296;SDS011;37380;45.186;9.792;2022-12-10T16:38:55;61.72;;;49.00;;
51296;SDS011;37380;45.186;9.792;2022-12-10T16:41:22;66.82;;;48.67;;
51296;SDS011;37380;45.186;9.792;2022-12-10T16:43:50;64.78;;;44.67;;
51296;SDS011;37380;45.186;9.792;2022-12-10T16:46:18;63.17;;;46.92;;
51296;SDS011;37380;45.186;9.792;2022-12-10T16:48:51;54.78;;;46.25;;
51296;SDS011;37380;45.186;9.792;2022-12-10T16:51:52;56.78;;;46.20;;
51296;SDS011;37380;45.186;9.792;2022-12-10T16:54:20;59.45;;;43.83;;
51296;SDS011;37380;45.186;9.792;2022-12-10T16:56:47;61.22;;;43.72;;
51296;SDS011;37380;45.186;9.792;2022-12-10T16:59:21;61.28;;;46.78;;
51296;SDS011;37380;45.186;9.792;2022-12-10T17:02:23;53.47;;;41.42;;
51296;SDS011;37380;45.186;9.792;2022-12-10T17:05:29;62.38;;;46.53;;
51296;SDS011;37380;45.186;9.792;2022-12-10T17:08:24;56.83;;;43.15;;
51296;SDS011;37380;45.186;9.792;2022-12-10T17:11:27;53.80;;;43.45;;
51296;SDS011;37380;45.186;9.792;2022-12-10T17:14:39;55.75;;;42.72;;
51296;SDS011;37380;45.186;9.792;2022-12-10T17:17:41;64.13;;;43.92;;
51296;SDS011;37380;45.186;9.792;2022-12-10T17:20:35;62.42;;;43.92;;
51296;SDS011;37380;45.186;9.792;2022-12-10T17:23:02;58.83;;;44.45;;
51296;SDS011;37380;45.186;9.792;2022-12-10T17:25:29;57.45;;;44.13;;
51296;SDS011;37380;45.186;9.792;2022-12-10T17:27:57;58.72;;;45.38;;
51296;SDS011;37380;45.186;9.792;2022-12-10T17:30:32;56.45;;;42.72;;
51296;SDS011;37380;45.186;9.792;2022-12-10T17:33:26;54.42;;;41.33;;
51296;SDS011;37380;45.186;9.792;2022-12-10T17:36:00;59.92;;;44.42;;
51296;SDS011;37380;45.186;9.792;2022-12-10T17:38:54;62.33;;;44.28;;
51296;SDS011;37380;45.186;9.792;2022-12-10T17:41:21;55.00;;;43.30;;
51296;SDS011;37380;45.186;9.792;2022-12-10T17:43:48;52.45;;;40.65;;
51296;SDS011;37380;45.186;9.792;2022-12-10T17:46:18;48.28;;;36.22;;
51296;SDS011;37380;45.186;9.792;2022-12-10T17:48:55;44.30;;;34.67;;
51296;SDS011;37380;45.186;9.792;2022-12-10T17:51:49;42.75;;;32.60;;